sensor_id;sensor_type;location;lat;lon;timestamp;temperature;humidity
16532;DHT22;66872;63.142;14.482;2023-05-10T00:00:39;16.90;1.00
16532;DHT22;66872;63.142;14.482;2023-05-10T00:03:05;16.80;41.80
16532;DHT22;66872;63.142;14.482;2023-05-10T00:05:31;16.90;1.00
16532;DHT22;66872;63.142;14.482;2023-05-10T00:07:57;16.80;99.90
16532;DHT22;66872;63.142;14.482;2023-05-10T00:10:22;16.80;1.00
16532;DHT22;66872;63.142;14.482;2023-05-10T00:12:48;16.80;99.90
16532;DHT22;66872;63.142;14.482;2023-05-10T00:15:14;16.80;99.90
16532;DHT22;66872;63.142;14.482;2023-05-10T00:17:39;16.80;1.00
16532;DHT22;66872;63.142;14.482;2023-05-10T00:20:06;16.80;1.00
16532;DHT22;66872;63.142;14.482;2023-05-10T00:22:32;16.80;99.90
16532;DHT22;66872;63.142;14.482;2023-05-10T00:24:58;16.70;99.90
16532;DHT22;66872;63.142;14.482;2023-05-10T00:27:24;16.80;1.00
16532;DHT22;66872;63.142;14.482;2023-05-10T00:29:50;16.80;62.40
16532;DHT22;66872;63.142;14.482;2023-05-10T00:32:15;16.70;99.90
16532;DHT22;66872;63.142;14.482;2023-05-10T00:34:41;16.70;1.00
16532;DHT22;66872;63.142;14.482;2023-05-10T00:37:07;16.70;99.90
16532;DHT22;66872;63.142;14.482;2023-05-10T00:39:33;16.70;1.00
16532;DHT22;66872;63.142;14.482;2023-05-10T00:41:58;16.70;99.90
16532;DHT22;66872;63.142;14.482;2023-05-10T00:44:25;16.70;99.90
16532;DHT22;66872;63.142;14.482;2023-05-10T00:46:51;16.70;1.00
16532;DHT22;66872;63.142;14.482;2023-05-10T00:49:16;16.70;1.00
16532;DHT22;66872;63.142;14.482;2023-05-10T00:51:42;16.70;1.00
16532;DHT22;66872;63.142;14.482;2023-05-10T00:54:14;16.70;99.90
16532;DHT22;66872;63.142;14.482;2023-05-10T00:56:40;16.70;99.90
16532;DHT22;66872;63.142;14.482;2023-05-10T00:59:09;16.60;99.90
16532;DHT22;66872;63.142;14.482;2023-05-10T01:01:37;16.60;1.00
16532;DHT22;66872;63.142;14.482;2023-05-10T01:04:03;16.60;99.90
16532;DHT22;66872;63.142;14.482;2023-05-10T01:06:29;16.60;99.90
16532;DHT22;66872;63.142;14.482;2023-05-10T01:08:55;16.60;1.00
16532;DHT22;66872;63.142;14.482;2023-05-10T01:11:21;16.60;99.90
16532;DHT22;66872;63.142;14.482;2023-05-10T01:13:52;16.60;99.90
16532;DHT22;66872;63.142;14.482;2023-05-10T01:16:20;16.60;99.90
16532;DHT22;66872;63.142;14.482;2023-05-10T01:18:46;16.60;99.90
16532;DHT22;66872;63.142;14.482;2023-05-10T01:21:38;16.60;99.90
16532;DHT22;66872;63.142;14.482;2023-05-10T01:37:42;16.60;1.00
16532;DHT22;66872;63.142;14.482;2023-05-10T01:40:32;16.60;1.00
16532;DHT22;66872;63.142;14.482;2023-05-10T01:43:04;16.60;1.00
16532;DHT22;66872;63.142;14.482;2023-05-10T01:45:41;16.60;11.50
16532;DHT22;66872;63.142;14.482;2023-05-10T01:48:11;16.60;1.00
16532;DHT22;66872;63.142;14.482;2023-05-10T01:50:43;16.60;99.90
16532;DHT22;66872;63.142;14.482;2023-05-10T01:53:10;16.60;92.80
16532;DHT22;66872;63.142;14.482;2023-05-10T01:55:45;16.60;1.00
16532;DHT22;66872;63.142;14.482;2023-05-10T01:58:15;16.60;1.00
16532;DHT22;66872;63.142;14.482;2023-05-10T02:00:44;16.60;1.00
16532;DHT22;66872;63.142;14.482;2023-05-10T02:03:12;16.60;65.40
16532;DHT22;66872;63.142;14.482;2023-05-10T02:05:39;16.60;84.50
16532;DHT22;66872;63.142;14.482;2023-05-10T02:08:07;16.60;9.70
16532;DHT22;66872;63.142;14.482;2023-05-10T02:10:37;16.50;22.60
16532;DHT22;66872;63.142;14.482;2023-05-10T02:13:05;16.60;99.90
16532;DHT22;66872;63.142;14.482;2023-05-10T02:15:32;16.60;99.90
16532;DHT22;66872;63.142;14.482;2023-05-10T02:18:00;16.60;99.90
16532;DHT22;66872;63.142;14.482;2023-05-10T02:20:27;16.60;99.90
16532;DHT22;66872;63.142;14.482;2023-05-10T02:22:54;16.60;99.90
16532;DHT22;66872;63.142;14.482;2023-05-10T02:25:21;16.50;99.90
16532;DHT22;66872;63.142;14.482;2023-05-10T02:27:48;16.50;1.00
16532;DHT22;66872;63.142;14.482;2023-05-10T02:30:15;16.50;99.90
16532;DHT22;66872;63.142;14.482;2023-05-10T02:32:42;16.50;1.00
16532;DHT22;66872;63.142;14.482;2023-05-10T02:35:09;16.60;1.00
16532;DHT22;66872;63.142;14.482;2023-05-10T02:37:37;16.60;1.00
16532;DHT22;66872;63.142;14.482;2023-05-10T02:40:04;16.60;1.00
16532;DHT22;66872;63.142;14.482;2023-05-10T02:42:33;16.60;1.00
16532;DHT22;66872;63.142;14.482;2023-05-10T02:45:02;16.60;1.00
16532;DHT22;66872;63.142;14.482;2023-05-10T02:47:29;16.50;1.00
16532;DHT22;66872;63.142;14.482;2023-05-10T02:49:55;16.60;15.40
16532;DHT22;66872;63.142;14.482;2023-05-10T02:52:27;16.50;3.80
16532;DHT22;66872;63.142;14.482;2023-05-10T02:55:01;16.60;1.00
16532;DHT22;66872;63.142;14.482;2023-05-10T02:57:33;16.60;91.20
16532;DHT22;66872;63.142;14.482;2023-05-10T03:00:00;16.60;31.80
16532;DHT22;66872;63.142;14.482;2023-05-10T03:02:26;16.50;95.60
16532;DHT22;66872;63.142;14.482;2023-05-10T03:04:52;16.60;90.20
16532;DHT22;66872;63.142;14.482;2023-05-10T03:07:18;16.60;1.00
16532;DHT22;66872;63.142;14.482;2023-05-10T03:09:47;16.60;99.90
16532;DHT22;66872;63.142;14.482;2023-05-10T03:12:47;16.60;95.30
16532;DHT22;66872;63.142;14.482;2023-05-10T03:18:02;16.60;36.00
16532;DHT22;66872;63.142;14.482;2023-05-10T03:20:41;16.60;55.30
16532;DHT22;66872;63.142;14.482;2023-05-10T03:25:52;16.60;12.60
16532;DHT22;66872;63.142;14.482;2023-05-10T03:28:19;16.60;99.90
16532;DHT22;66872;63.142;14.482;2023-05-10T03:30:46;16.60;99.90
16532;DHT22;66872;63.142;14.482;2023-05-10T03:33:12;16.60;99.90
16532;DHT22;66872;63.142;14.482;2023-05-10T03:35:39;16.60;99.90
16532;DHT22;66872;63.142;14.482;2023-05-10T03:38:05;16.60;99.90
16532;DHT22;66872;63.142;14.482;2023-05-10T03:40:30;16.60;1.00
16532;DHT22;66872;63.142;14.482;2023-05-10T03:42:58;16.60;30.10
16532;DHT22;66872;63.142;14.482;2023-05-10T03:45:24;16.60;1.00
16532;DHT22;66872;63.142;14.482;2023-05-10T03:47:50;16.60;1.00
16532;DHT22;66872;63.142;14.482;2023-05-10T03:50:15;16.60;1.00
16532;DHT22;66872;63.142;14.482;2023-05-10T03:52:42;16.60;1.00
16532;DHT22;66872;63.142;14.482;2023-05-10T03:55:07;16.60;1.00
16532;DHT22;66872;63.142;14.482;2023-05-10T03:57:34;16.60;1.00
16532;DHT22;66872;63.142;14.482;2023-05-10T03:59:59;16.60;1.00
16532;DHT22;66872;63.142;14.482;2023-05-10T04:02:25;16.60;1.00
16532;DHT22;66872;63.142;14.482;2023-05-10T04:04:51;16.60;1.00
16532;DHT22;66872;63.142;14.482;2023-05-10T04:07:17;16.60;7.20
16532;DHT22;66872;63.142;14.482;2023-05-10T04:09:43;16.70;1.00
16532;DHT22;66872;63.142;14.482;2023-05-10T04:12:09;16.70;1.00
16532;DHT22;66872;63.142;14.482;2023-05-10T04:14:35;16.70;1.00
16532;DHT22;66872;63.142;14.482;2023-05-10T04:17:00;16.70;1.00
16532;DHT22;66872;63.142;14.482;2023-05-10T04:19:30;16.70;19.90
16532;DHT22;66872;63.142;14.482;2023-05-10T04:21:56;16.70;1.00
16532;DHT22;66872;63.142;14.482;2023-05-10T04:24:21;16.70;1.00
16532;DHT22;66872;63.142;14.482;2023-05-10T04:26:47;16.70;1.00
16532;DHT22;66872;63.142;14.482;2023-05-10T04:29:12;16.70;42.00
16532;DHT22;66872;63.142;14.482;2023-05-10T04:31:38;16.80;58.00
16532;DHT22;66872;63.142;14.482;2023-05-10T04:34:04;16.70;1.00
16532;DHT22;66872;63.142;14.482;2023-05-10T04:36:30;16.80;1.00
16532;DHT22;66872;63.142;14.482;2023-05-10T04:38:57;16.80;1.00
16532;DHT22;66872;63.142;14.482;2023-05-10T04:41:23;16.90;1.00
16532;DHT22;66872;63.142;14.482;2023-05-10T04:43:50;16.90;1.00
16532;DHT22;66872;63.142;14.482;2023-05-10T04:46:15;16.90;1.00
16532;DHT22;66872;63.142;14.482;2023-05-10T04:48:41;16.90;1.00
16532;DHT22;66872;63.142;14.482;2023-05-10T04:51:07;16.90;1.00
16532;DHT22;66872;63.142;14.482;2023-05-10T04:53:33;17.00;1.00
16532;DHT22;66872;63.142;14.482;2023-05-10T04:55:58;17.00;1.00
16532;DHT22;66872;63.142;14.482;2023-05-10T04:58:24;17.00;1.00
16532;DHT22;66872;63.142;14.482;2023-05-10T05:00:50;17.00;1.00
16532;DHT22;66872;63.142;14.482;2023-05-10T05:03:15;17.00;1.00
16532;DHT22;66872;63.142;14.482;2023-05-10T05:05:41;17.00;1.00
16532;DHT22;66872;63.142;14.482;2023-05-10T05:08:07;17.00;1.00
16532;DHT22;66872;63.142;14.482;2023-05-10T05:10:33;17.00;1.00
16532;DHT22;66872;63.142;14.482;2023-05-10T05:12:58;17.00;1.00
16532;DHT22;66872;63.142;14.482;2023-05-10T05:15:24;17.00;1.00
16532;DHT22;66872;63.142;14.482;2023-05-10T05:17:50;17.00;1.00
16532;DHT22;66872;63.142;14.482;2023-05-10T05:20:15;17.00;1.00
16532;DHT22;66872;63.142;14.482;2023-05-10T05:22:41;17.00;1.00
16532;DHT22;66872;63.142;14.482;2023-05-10T05:25:07;17.00;1.00
16532;DHT22;66872;63.142;14.482;2023-05-10T05:27:33;17.00;1.00
16532;DHT22;66872;63.142;14.482;2023-05-10T05:29:59;17.00;1.00
16532;DHT22;66872;63.142;14.482;2023-05-10T05:32:25;17.00;1.00
16532;DHT22;66872;63.142;14.482;2023-05-10T05:34:51;17.10;1.00
16532;DHT22;66872;63.142;14.482;2023-05-10T05:37:18;17.10;1.00
16532;DHT22;66872;63.142;14.482;2023-05-10T05:39:44;17.10;1.00
16532;DHT22;66872;63.142;14.482;2023-05-10T05:42:11;17.10;1.00
16532;DHT22;66872;63.142;14.482;2023-05-10T05:44:37;17.10;1.00
16532;DHT22;66872;63.142;14.482;2023-05-10T05:47:03;17.10;1.00
16532;DHT22;66872;63.142;14.482;2023-05-10T05:49:28;17.10;1.00
16532;DHT22;66872;63.142;14.482;2023-05-10T05:51:58;17.10;1.00
16532;DHT22;66872;63.142;14.482;2023-05-10T05:54:23;17.10;1.00
16532;DHT22;66872;63.142;14.482;2023-05-10T05:56:49;17.10;1.00
16532;DHT22;66872;63.142;14.482;2023-05-10T05:59:14;17.20;1.00
16532;DHT22;66872;63.142;14.482;2023-05-10T06:01:40;17.10;16.30
16532;DHT22;66872;63.142;14.482;2023-05-10T06:04:06;17.20;1.00
16532;DHT22;66872;63.142;14.482;2023-05-10T06:06:31;17.20;1.00
16532;DHT22;66872;63.142;14.482;2023-05-10T06:08:57;17.20;1.00
16532;DHT22;66872;63.142;14.482;2023-05-10T06:11:23;17.20;1.00
16532;DHT22;66872;63.142;14.482;2023-05-10T06:13:49;17.20;47.10
16532;DHT22;66872;63.142;14.482;2023-05-10T06:16:14;17.20;1.00
16532;DHT22;66872;63.142;14.482;2023-05-10T06:18:40;17.20;3.80
16532;DHT22;66872;63.142;14.482;2023-05-10T06:21:06;17.20;99.90
16532;DHT22;66872;63.142;14.482;2023-05-10T06:23:32;17.30;99.90
16532;DHT22;66872;63.142;14.482;2023-05-10T06:25:58;17.30;99.90
16532;DHT22;66872;63.142;14.482;2023-05-10T06:28:23;17.40;99.90
16532;DHT22;66872;63.142;14.482;2023-05-10T06:30:49;17.40;17.20
16532;DHT22;66872;63.142;14.482;2023-05-10T06:33:15;17.40;99.90
16532;DHT22;66872;63.142;14.482;2023-05-10T06:35:41;17.40;1.00
16532;DHT22;66872;63.142;14.482;2023-05-10T06:38:07;17.50;99.90
16532;DHT22;66872;63.142;14.482;2023-05-10T06:40:32;17.50;99.90
16532;DHT22;66872;63.142;14.482;2023-05-10T06:42:58;17.50;99.90
16532;DHT22;66872;63.142;14.482;2023-05-10T06:45:24;17.50;99.90
16532;DHT22;66872;63.142;14.482;2023-05-10T06:47:49;17.50;1.00
16532;DHT22;66872;63.142;14.482;2023-05-10T06:50:15;17.50;99.90
16532;DHT22;66872;63.142;14.482;2023-05-10T06:52:41;17.50;1.00
16532;DHT22;66872;63.142;14.482;2023-05-10T06:55:07;17.50;28.70
16532;DHT22;66872;63.142;14.482;2023-05-10T06:57:33;17.50;1.00
16532;DHT22;66872;63.142;14.482;2023-05-10T06:59:59;17.50;1.00
16532;DHT22;66872;63.142;14.482;2023-05-10T07:02:25;17.40;73.30
16532;DHT22;66872;63.142;14.482;2023-05-10T07:04:50;17.40;32.00
16532;DHT22;66872;63.142;14.482;2023-05-10T07:07:17;17.40;87.00
16532;DHT22;66872;63.142;14.482;2023-05-10T07:09:43;17.40;62.40
16532;DHT22;66872;63.142;14.482;2023-05-10T07:12:08;17.40;99.90
16532;DHT22;66872;63.142;14.482;2023-05-10T07:14:34;17.40;99.90
16532;DHT22;66872;63.142;14.482;2023-05-10T07:17:00;17.40;99.90
16532;DHT22;66872;63.142;14.482;2023-05-10T07:19:25;17.50;99.90
16532;DHT22;66872;63.142;14.482;2023-05-10T07:21:51;17.50;1.00
16532;DHT22;66872;63.142;14.482;2023-05-10T07:24:17;17.60;22.40
16532;DHT22;66872;63.142;14.482;2023-05-10T07:26:43;17.80;99.90
16532;DHT22;66872;63.142;14.482;2023-05-10T07:29:08;17.90;1.00
16532;DHT22;66872;63.142;14.482;2023-05-10T07:31:35;18.00;99.90
16532;DHT22;66872;63.142;14.482;2023-05-10T07:34:01;18.00;50.70
16532;DHT22;66872;63.142;14.482;2023-05-10T07:36:26;18.10;11.70
16532;DHT22;66872;63.142;14.482;2023-05-10T07:38:53;18.20;77.20
16532;DHT22;66872;63.142;14.482;2023-05-10T07:41:18;18.30;99.90
16532;DHT22;66872;63.142;14.482;2023-05-10T07:43:44;18.40;59.90
16532;DHT22;66872;63.142;14.482;2023-05-10T07:46:10;18.60;1.00
16532;DHT22;66872;63.142;14.482;2023-05-10T07:48:37;18.70;99.90
16532;DHT22;66872;63.142;14.482;2023-05-10T07:51:02;18.90;99.90
16532;DHT22;66872;63.142;14.482;2023-05-10T07:53:28;19.00;99.90
16532;DHT22;66872;63.142;14.482;2023-05-10T07:55:57;19.20;34.80
16532;DHT22;66872;63.142;14.482;2023-05-10T07:58:23;19.20;94.20
16532;DHT22;66872;63.142;14.482;2023-05-10T08:00:49;19.30;1.00
16532;DHT22;66872;63.142;14.482;2023-05-10T08:03:15;19.40;99.90
16532;DHT22;66872;63.142;14.482;2023-05-10T08:05:41;19.50;99.90
16532;DHT22;66872;63.142;14.482;2023-05-10T08:08:07;19.60;99.90
16532;DHT22;66872;63.142;14.482;2023-05-10T08:10:32;19.70;1.00
16532;DHT22;66872;63.142;14.482;2023-05-10T08:12:58;19.70;1.00
16532;DHT22;66872;63.142;14.482;2023-05-10T08:15:24;19.70;1.00
16532;DHT22;66872;63.142;14.482;2023-05-10T08:17:51;19.70;1.00
16532;DHT22;66872;63.142;14.482;2023-05-10T08:20:17;19.70;1.00
16532;DHT22;66872;63.142;14.482;2023-05-10T08:22:45;19.60;99.90
16532;DHT22;66872;63.142;14.482;2023-05-10T08:25:11;19.70;1.00
16532;DHT22;66872;63.142;14.482;2023-05-10T08:27:37;19.70;1.00
16532;DHT22;66872;63.142;14.482;2023-05-10T08:30:03;19.70;1.00
16532;DHT22;66872;63.142;14.482;2023-05-10T08:32:28;19.80;1.00
16532;DHT22;66872;63.142;14.482;2023-05-10T08:34:55;19.80;1.00
16532;DHT22;66872;63.142;14.482;2023-05-10T08:37:23;19.90;1.00
16532;DHT22;66872;63.142;14.482;2023-05-10T08:39:48;19.90;1.00
16532;DHT22;66872;63.142;14.482;2023-05-10T08:42:18;19.90;1.00
16532;DHT22;66872;63.142;14.482;2023-05-10T08:44:48;19.90;1.00
16532;DHT22;66872;63.142;14.482;2023-05-10T08:47:16;19.90;1.00
16532;DHT22;66872;63.142;14.482;2023-05-10T08:49:44;19.80;1.00
16532;DHT22;66872;63.142;14.482;2023-05-10T08:52:13;19.80;1.00
16532;DHT22;66872;63.142;14.482;2023-05-10T08:54:40;19.70;1.00
16532;DHT22;66872;63.142;14.482;2023-05-10T08:57:06;19.70;1.00
16532;DHT22;66872;63.142;14.482;2023-05-10T08:59:32;19.70;1.00
16532;DHT22;66872;63.142;14.482;2023-05-10T09:01:58;19.70;1.00
16532;DHT22;66872;63.142;14.482;2023-05-10T09:04:25;19.60;1.00
16532;DHT22;66872;63.142;14.482;2023-05-10T09:06:51;19.60;1.00
16532;DHT22;66872;63.142;14.482;2023-05-10T09:09:17;19.60;1.00
16532;DHT22;66872;63.142;14.482;2023-05-10T09:11:44;19.60;1.00
16532;DHT22;66872;63.142;14.482;2023-05-10T09:14:11;19.60;1.00
16532;DHT22;66872;63.142;14.482;2023-05-10T09:16:38;19.60;1.00
16532;DHT22;66872;63.142;14.482;2023-05-10T09:19:03;19.60;1.00
16532;DHT22;66872;63.142;14.482;2023-05-10T09:21:30;19.60;1.00
16532;DHT22;66872;63.142;14.482;2023-05-10T09:23:56;19.60;1.00
16532;DHT22;66872;63.142;14.482;2023-05-10T09:26:23;19.60;1.00
16532;DHT22;66872;63.142;14.482;2023-05-10T09:28:54;19.60;1.00
16532;DHT22;66872;63.142;14.482;2023-05-10T09:31:20;19.60;1.00
16532;DHT22;66872;63.142;14.482;2023-05-10T09:33:47;19.60;1.00
16532;DHT22;66872;63.142;14.482;2023-05-10T09:36:14;19.60;1.00
16532;DHT22;66872;63.142;14.482;2023-05-10T09:41:22;19.60;1.00
16532;DHT22;66872;63.142;14.482;2023-05-10T09:43:49;19.60;1.00
16532;DHT22;66872;63.142;14.482;2023-05-10T09:46:15;19.60;1.00
16532;DHT22;66872;63.142;14.482;2023-05-10T09:48:46;19.60;1.00
16532;DHT22;66872;63.142;14.482;2023-05-10T09:51:22;19.60;1.00
16532;DHT22;66872;63.142;14.482;2023-05-10T09:53:48;19.60;1.00
16532;DHT22;66872;63.142;14.482;2023-05-10T09:56:34;19.60;1.00
16532;DHT22;66872;63.142;14.482;2023-05-10T09:59:04;19.50;1.00
16532;DHT22;66872;63.142;14.482;2023-05-10T10:01:30;19.50;1.00
16532;DHT22;66872;63.142;14.482;2023-05-10T10:03:56;19.50;1.00
16532;DHT22;66872;63.142;14.482;2023-05-10T10:06:24;19.50;1.00
16532;DHT22;66872;63.142;14.482;2023-05-10T10:08:50;19.50;1.00
16532;DHT22;66872;63.142;14.482;2023-05-10T10:11:16;19.50;1.00
16532;DHT22;66872;63.142;14.482;2023-05-10T10:13:42;19.50;1.00
16532;DHT22;66872;63.142;14.482;2023-05-10T10:16:09;19.40;1.00
16532;DHT22;66872;63.142;14.482;2023-05-10T10:18:36;19.40;1.00
16532;DHT22;66872;63.142;14.482;2023-05-10T10:21:07;19.40;1.00
16532;DHT22;66872;63.142;14.482;2023-05-10T10:23:36;19.30;1.00
16532;DHT22;66872;63.142;14.482;2023-05-10T10:26:03;19.30;1.00
16532;DHT22;66872;63.142;14.482;2023-05-10T10:28:56;19.30;1.00
16532;DHT22;66872;63.142;14.482;2023-05-10T10:31:47;19.20;1.00
16532;DHT22;66872;63.142;14.482;2023-05-10T10:34:26;19.20;1.00
16532;DHT22;66872;63.142;14.482;2023-05-10T10:36:54;19.20;1.00
16532;DHT22;66872;63.142;14.482;2023-05-10T10:39:20;19.20;1.00
16532;DHT22;66872;63.142;14.482;2023-05-10T10:41:54;19.10;1.00
16532;DHT22;66872;63.142;14.482;2023-05-10T10:47:01;19.10;1.00
16532;DHT22;66872;63.142;14.482;2023-05-10T10:49:30;19.00;1.00
16532;DHT22;66872;63.142;14.482;2023-05-10T10:54:41;19.00;1.00
16532;DHT22;66872;63.142;14.482;2023-05-10T10:57:14;19.00;99.90
16532;DHT22;66872;63.142;14.482;2023-05-10T10:59:43;18.90;99.90
16532;DHT22;66872;63.142;14.482;2023-05-10T11:02:09;18.90;91.70
16532;DHT22;66872;63.142;14.482;2023-05-10T11:04:42;18.90;99.90
16532;DHT22;66872;63.142;14.482;2023-05-10T11:07:18;18.90;99.90
16532;DHT22;66872;63.142;14.482;2023-05-10T11:09:46;18.80;99.90
16532;DHT22;66872;63.142;14.482;2023-05-10T11:12:12;18.80;99.90
16532;DHT22;66872;63.142;14.482;2023-05-10T11:14:38;18.80;99.90
16532;DHT22;66872;63.142;14.482;2023-05-10T11:17:24;18.80;1.00
16532;DHT22;66872;63.142;14.482;2023-05-10T11:20:09;18.80;1.00
16532;DHT22;66872;63.142;14.482;2023-05-10T11:22:51;18.80;99.90
16532;DHT22;66872;63.142;14.482;2023-05-10T11:25:18;18.80;99.90
16532;DHT22;66872;63.142;14.482;2023-05-10T11:27:44;18.80;32.50
16532;DHT22;66872;63.142;14.482;2023-05-10T11:30:10;18.80;99.90
16532;DHT22;66872;63.142;14.482;2023-05-10T11:32:40;18.70;2.00
16532;DHT22;66872;63.142;14.482;2023-05-10T11:35:10;18.70;1.00
16532;DHT22;66872;63.142;14.482;2023-05-10T11:37:37;18.70;99.90
16532;DHT22;66872;63.142;14.482;2023-05-10T11:40:07;18.70;99.90
16532;DHT22;66872;63.142;14.482;2023-05-10T11:42:39;18.70;99.90
16532;DHT22;66872;63.142;14.482;2023-05-10T11:45:05;18.70;1.00
16532;DHT22;66872;63.142;14.482;2023-05-10T11:47:31;18.70;99.90
16532;DHT22;66872;63.142;14.482;2023-05-10T11:49:57;18.70;1.00
16532;DHT22;66872;63.142;14.482;2023-05-10T11:52:23;18.70;1.00
16532;DHT22;66872;63.142;14.482;2023-05-10T11:54:55;18.70;1.00
16532;DHT22;66872;63.142;14.482;2023-05-10T11:57:26;18.70;71.80
16532;DHT22;66872;63.142;14.482;2023-05-10T11:59:56;18.70;30.60
16532;DHT22;66872;63.142;14.482;2023-05-10T12:02:22;18.70;1.90
16532;DHT22;66872;63.142;14.482;2023-05-10T12:04:48;18.70;99.90
16532;DHT22;66872;63.142;14.482;2023-05-10T12:07:14;18.70;91.80
16532;DHT22;66872;63.142;14.482;2023-05-10T12:10:05;18.70;91.10
16532;DHT22;66872;63.142;14.482;2023-05-10T12:12:38;18.70;23.60
16532;DHT22;66872;63.142;14.482;2023-05-10T12:15:05;18.70;99.90
16532;DHT22;66872;63.142;14.482;2023-05-10T12:17:32;18.70;35.40
16532;DHT22;66872;63.142;14.482;2023-05-10T12:20:20;18.70;69.10
16532;DHT22;66872;63.142;14.482;2023-05-10T12:22:54;18.70;99.90
16532;DHT22;66872;63.142;14.482;2023-05-10T12:25:22;18.70;99.90
16532;DHT22;66872;63.142;14.482;2023-05-10T12:27:52;18.70;99.90
16532;DHT22;66872;63.142;14.482;2023-05-10T12:30:32;18.70;1.00
16532;DHT22;66872;63.142;14.482;2023-05-10T12:33:12;18.70;1.00
16532;DHT22;66872;63.142;14.482;2023-05-10T12:35:49;18.60;1.00
16532;DHT22;66872;63.142;14.482;2023-05-10T12:41:02;18.60;99.90
16532;DHT22;66872;63.142;14.482;2023-05-10T12:43:28;18.60;99.90
16532;DHT22;66872;63.142;14.482;2023-05-10T12:45:54;18.60;1.00
16532;DHT22;66872;63.142;14.482;2023-05-10T12:48:20;18.60;99.90
16532;DHT22;66872;63.142;14.482;2023-05-10T12:50:46;18.60;99.90
16532;DHT22;66872;63.142;14.482;2023-05-10T12:53:13;18.60;99.90
16532;DHT22;66872;63.142;14.482;2023-05-10T12:55:41;18.60;99.90
16532;DHT22;66872;63.142;14.482;2023-05-10T12:58:06;18.60;99.90
16532;DHT22;66872;63.142;14.482;2023-05-10T13:00:32;18.60;80.00
16532;DHT22;66872;63.142;14.482;2023-05-10T13:02:58;18.70;12.80
16532;DHT22;66872;63.142;14.482;2023-05-10T13:05:23;18.60;48.50
16532;DHT22;66872;63.142;14.482;2023-05-10T13:07:49;18.70;1.00
16532;DHT22;66872;63.142;14.482;2023-05-10T13:10:16;18.70;1.00
16532;DHT22;66872;63.142;14.482;2023-05-10T13:12:41;18.60;1.00
16532;DHT22;66872;63.142;14.482;2023-05-10T13:15:07;18.70;98.70
16532;DHT22;66872;63.142;14.482;2023-05-10T13:17:33;18.70;29.30
16532;DHT22;66872;63.142;14.482;2023-05-10T13:19:59;18.70;1.00
16532;DHT22;66872;63.142;14.482;2023-05-10T13:22:25;18.70;99.90
16532;DHT22;66872;63.142;14.482;2023-05-10T13:24:50;18.70;70.10
16532;DHT22;66872;63.142;14.482;2023-05-10T13:27:16;18.70;1.00
16532;DHT22;66872;63.142;14.482;2023-05-10T13:29:42;18.70;1.00
16532;DHT22;66872;63.142;14.482;2023-05-10T13:32:07;18.70;40.30
16532;DHT22;66872;63.142;14.482;2023-05-10T13:34:33;18.70;8.30
16532;DHT22;66872;63.142;14.482;2023-05-10T13:37:01;18.70;1.00
16532;DHT22;66872;63.142;14.482;2023-05-10T13:39:26;18.70;1.00
16532;DHT22;66872;63.142;14.482;2023-05-10T13:41:52;18.70;94.90
16532;DHT22;66872;63.142;14.482;2023-05-10T13:44:19;18.70;1.00
16532;DHT22;66872;63.142;14.482;2023-05-10T13:46:45;18.70;8.70
16532;DHT22;66872;63.142;14.482;2023-05-10T13:49:11;18.80;1.00
16532;DHT22;66872;63.142;14.482;2023-05-10T13:51:37;18.80;1.00
16532;DHT22;66872;63.142;14.482;2023-05-10T13:54:03;18.80;1.00
16532;DHT22;66872;63.142;14.482;2023-05-10T13:56:29;18.80;1.00
16532;DHT22;66872;63.142;14.482;2023-05-10T13:58:56;18.80;1.00
16532;DHT22;66872;63.142;14.482;2023-05-10T14:01:22;18.80;1.00
16532;DHT22;66872;63.142;14.482;2023-05-10T14:03:48;18.80;1.00
16532;DHT22;66872;63.142;14.482;2023-05-10T14:06:14;18.80;1.00
16532;DHT22;66872;63.142;14.482;2023-05-10T14:08:40;18.80;1.00
16532;DHT22;66872;63.142;14.482;2023-05-10T14:11:05;18.80;1.00
16532;DHT22;66872;63.142;14.482;2023-05-10T14:13:31;18.80;1.00
16532;DHT22;66872;63.142;14.482;2023-05-10T14:15:57;18.80;1.00
16532;DHT22;66872;63.142;14.482;2023-05-10T14:18:24;18.80;1.00
16532;DHT22;66872;63.142;14.482;2023-05-10T14:20:49;18.80;1.00
16532;DHT22;66872;63.142;14.482;2023-05-10T14:23:15;18.80;24.90
16532;DHT22;66872;63.142;14.482;2023-05-10T14:25:41;18.80;1.00
16532;DHT22;66872;63.142;14.482;2023-05-10T14:28:06;18.90;1.00
16532;DHT22;66872;63.142;14.482;2023-05-10T14:30:32;18.90;1.00
16532;DHT22;66872;63.142;14.482;2023-05-10T14:33:00;18.90;1.00
16532;DHT22;66872;63.142;14.482;2023-05-10T14:35:27;18.90;1.00
16532;DHT22;66872;63.142;14.482;2023-05-10T14:37:53;18.90;1.00
16532;DHT22;66872;63.142;14.482;2023-05-10T14:40:19;18.90;1.00
16532;DHT22;66872;63.142;14.482;2023-05-10T14:42:44;18.90;1.00
16532;DHT22;66872;63.142;14.482;2023-05-10T14:45:10;18.90;1.00
16532;DHT22;66872;63.142;14.482;2023-05-10T14:47:37;18.90;1.00
16532;DHT22;66872;63.142;14.482;2023-05-10T14:50:03;18.90;1.00
16532;DHT22;66872;63.142;14.482;2023-05-10T14:52:29;18.90;49.40
16532;DHT22;66872;63.142;14.482;2023-05-10T14:54:55;18.90;99.90
16532;DHT22;66872;63.142;14.482;2023-05-10T14:57:20;18.90;99.90
16532;DHT22;66872;63.142;14.482;2023-05-10T14:59:46;18.90;99.90
16532;DHT22;66872;63.142;14.482;2023-05-10T15:02:12;18.90;99.90
16532;DHT22;66872;63.142;14.482;2023-05-10T15:04:38;18.90;33.30
16532;DHT22;66872;63.142;14.482;2023-05-10T15:07:03;18.90;99.90
16532;DHT22;66872;63.142;14.482;2023-05-10T15:09:29;18.90;23.10
16532;DHT22;66872;63.142;14.482;2023-05-10T15:11:55;18.90;99.90
16532;DHT22;66872;63.142;14.482;2023-05-10T15:14:22;18.90;99.90
16532;DHT22;66872;63.142;14.482;2023-05-10T15:16:47;18.80;99.90
16532;DHT22;66872;63.142;14.482;2023-05-10T15:19:13;18.90;99.90
16532;DHT22;66872;63.142;14.482;2023-05-10T15:21:39;18.90;61.20
16532;DHT22;66872;63.142;14.482;2023-05-10T15:24:08;18.90;7.60
16532;DHT22;66872;63.142;14.482;2023-05-10T15:26:34;18.80;20.00
16532;DHT22;66872;63.142;14.482;2023-05-10T15:28:59;18.80;17.10
16532;DHT22;66872;63.142;14.482;2023-05-10T15:31:25;18.80;1.00
16532;DHT22;66872;63.142;14.482;2023-05-10T15:33:57;18.80;89.70
16532;DHT22;66872;63.142;14.482;2023-05-10T15:36:23;18.80;99.90
16532;DHT22;66872;63.142;14.482;2023-05-10T15:38:49;18.80;99.90
16532;DHT22;66872;63.142;14.482;2023-05-10T15:41:14;18.80;99.90
16532;DHT22;66872;63.142;14.482;2023-05-10T15:43:40;18.80;97.90
16532;DHT22;66872;63.142;14.482;2023-05-10T15:46:06;18.80;93.10
16532;DHT22;66872;63.142;14.482;2023-05-10T15:48:31;18.80;99.90
16532;DHT22;66872;63.142;14.482;2023-05-10T15:50:57;18.80;1.00
16532;DHT22;66872;63.142;14.482;2023-05-10T15:53:23;18.80;99.90
16532;DHT22;66872;63.142;14.482;2023-05-10T15:55:49;18.90;99.90